KAY589 EDDB-EDDL
Flight info
| Callsign | KAY589 |
|---|---|
| Flight time | 0h 49m |
| Altitude | FL240 |
| Route | SUKIP3Q/06R SUKIP Y206 BUREL P203 HLZ L980 SAS PIROT T851 HALME |
| Aircraft | A20N/M-SDE3FGHIRWY/LB1 |
Departure
| Time | 2026-05-06 19:16 |
|---|---|
| Airport | Berlin Brandenburg Airport (EDDB) |
Arrival
| Time | 2026-05-06 20:05 |
|---|---|
| Airport | Düsseldorf Airport (EDDL) |
| Time | Latitude | Longitude | Altitude | Speed | Heading |
|---|---|---|---|---|---|
| 2026-05-06 19:02 | 52.35877 | 13.50446 | 147 ft | 0 kts | 249° |
| 2026-05-06 19:09 | 52.35880 | 13.50461 | 147 ft | 2 kts | 249° |
| 2026-05-06 19:09 | 52.35885 | 13.50482 | 147 ft | 2 kts | 249° |
| 2026-05-06 19:09 | 52.35890 | 13.50504 | 147 ft | 2 kts | 249° |
| 2026-05-06 19:10 | 52.35896 | 13.50526 | 147 ft | 2 kts | 249° |
| 2026-05-06 19:10 | 52.35899 | 13.50542 | 147 ft | 1 kts | 249° |
| 2026-05-06 19:10 | 52.35909 | 13.50564 | 147 ft | 2 kts | 208° |
| 2026-05-06 19:10 | 52.35923 | 13.50570 | 147 ft | 2 kts | 173° |
| 2026-05-06 19:11 | 52.35931 | 13.50567 | 147 ft | 1 kts | 153° |
| 2026-05-06 19:11 | 52.35935 | 13.50564 | 147 ft | 0 kts | 158° |
| 2026-05-06 19:12 | 52.35928 | 13.50568 | 147 ft | 4 kts | 159° |
| 2026-05-06 19:13 | 52.35881 | 13.50597 | 147 ft | 11 kts | 159° |
| 2026-05-06 19:13 | 52.35787 | 13.50639 | 147 ft | 17 kts | 199° |
| 2026-05-06 19:13 | 52.35733 | 13.50460 | 147 ft | 22 kts | 252° |
| 2026-05-06 19:13 | 52.35676 | 13.50200 | 147 ft | 27 kts | 243° |
| 2026-05-06 19:14 | 52.35601 | 13.49900 | 147 ft | 31 kts | 251° |
| 2026-05-06 19:14 | 52.35522 | 13.49559 | 147 ft | 35 kts | 243° |
| 2026-05-06 19:14 | 52.35432 | 13.49189 | 147 ft | 38 kts | 253° |
| 2026-05-06 19:14 | 52.35346 | 13.48785 | 147 ft | 38 kts | 239° |
| 2026-05-06 19:15 | 52.35227 | 13.48471 | 147 ft | 21 kts | 167° |
| 2026-05-06 19:15 | 52.35115 | 13.48567 | 147 ft | 19 kts | 130° |
| 2026-05-06 19:15 | 52.35096 | 13.48683 | 147 ft | 8 kts | 95° |
| 2026-05-06 19:15 | 52.35079 | 13.48877 | 147 ft | 36 kts | 97° |
| 2026-05-06 19:16 | 52.35184 | 13.49546 | 147 ft | 106 kts | 68° |
| 2026-05-06 19:16 | 52.35492 | 13.50852 | 519 ft | 147 kts | 69° |
| 2026-05-06 19:16 | 52.35527 | 13.52368 | 1345 ft | 160 kts | 103° |
| 2026-05-06 19:16 | 52.34927 | 13.53763 | 2259 ft | 177 kts | 133° |
| 2026-05-06 19:17 | 52.33874 | 13.54864 | 3123 ft | 198 kts | 153° |
| 2026-05-06 19:17 | 52.32493 | 13.55374 | 4026 ft | 218 kts | 181° |
| 2026-05-06 19:17 | 52.31048 | 13.54645 | 4973 ft | 232 kts | 216° |
| 2026-05-06 19:17 | 52.29795 | 13.52918 | 5965 ft | 246 kts | 225° |
| 2026-05-06 19:18 | 52.28527 | 13.50971 | 6965 ft | 262 kts | 225° |
| 2026-05-06 19:18 | 52.27188 | 13.48909 | 7982 ft | 275 kts | 229° |
| 2026-05-06 19:18 | 52.26283 | 13.46274 | 9200 ft | 275 kts | 256° |
| 2026-05-06 19:18 | 52.26164 | 13.43228 | 10498 ft | 276 kts | 269° |
| 2026-05-06 19:19 | 52.26188 | 13.40137 | 11705 ft | 280 kts | 269° |
| 2026-05-06 19:19 | 52.26212 | 13.36974 | 12813 ft | 286 kts | 269° |
| 2026-05-06 19:19 | 52.26230 | 13.33743 | 13867 ft | 292 kts | 268° |
| 2026-05-06 19:19 | 52.26241 | 13.30434 | 14855 ft | 299 kts | 268° |
| 2026-05-06 19:20 | 52.26256 | 13.27023 | 15601 ft | 306 kts | 268° |
| 2026-05-06 19:20 | 52.26129 | 13.23598 | 16695 ft | 306 kts | 258° |
| 2026-05-06 19:20 | 52.25537 | 13.20328 | 17733 ft | 307 kts | 248° |
| 2026-05-06 19:20 | 52.24951 | 13.16925 | 18344 ft | 324 kts | 262° |
| 2026-05-06 19:21 | 52.25096 | 13.13166 | 18803 ft | 346 kts | 276° |
| 2026-05-06 19:21 | 52.25524 | 13.09184 | 19227 ft | 364 kts | 277° |
| 2026-05-06 19:21 | 52.25934 | 13.05055 | 19590 ft | 382 kts | 276° |
| 2026-05-06 19:21 | 52.26299 | 13.00688 | 19885 ft | 398 kts | 275° |
| 2026-05-06 19:22 | 52.26624 | 12.96140 | 20233 ft | 411 kts | 274° |
| 2026-05-06 19:22 | 52.26921 | 12.91493 | 20821 ft | 417 kts | 273° |
| 2026-05-06 19:22 | 52.27202 | 12.86750 | 21514 ft | 419 kts | 273° |
| 2026-05-06 19:22 | 52.27467 | 12.82052 | 22147 ft | 422 kts | 272° |
| 2026-05-06 19:23 | 52.27727 | 12.77273 | 22736 ft | 425 kts | 272° |
| 2026-05-06 19:23 | 52.27979 | 12.72513 | 23312 ft | 428 kts | 272° |
| 2026-05-06 19:23 | 52.28229 | 12.67675 | 23718 ft | 430 kts | 272° |
| 2026-05-06 19:23 | 52.28477 | 12.62841 | 23783 ft | 430 kts | 272° |
| 2026-05-06 19:24 | 52.28720 | 12.58010 | 23792 ft | 429 kts | 272° |
| 2026-05-06 19:24 | 52.28961 | 12.53200 | 23791 ft | 429 kts | 272° |
| 2026-05-06 19:24 | 52.29200 | 12.48373 | 23790 ft | 429 kts | 272° |
| 2026-05-06 19:24 | 52.29438 | 12.43521 | 23787 ft | 429 kts | 272° |
| 2026-05-06 19:25 | 52.29673 | 12.38671 | 23793 ft | 429 kts | 272° |
| 2026-05-06 19:25 | 52.29905 | 12.33877 | 23784 ft | 428 kts | 271° |
| 2026-05-06 19:25 | 52.30135 | 12.29051 | 23792 ft | 428 kts | 271° |
| 2026-05-06 19:25 | 52.30362 | 12.24269 | 23795 ft | 427 kts | 271° |
| 2026-05-06 19:26 | 52.30590 | 12.19420 | 23796 ft | 428 kts | 271° |
| 2026-05-06 19:26 | 52.30813 | 12.14619 | 23798 ft | 428 kts | 271° |
| 2026-05-06 19:26 | 52.31036 | 12.09806 | 23789 ft | 427 kts | 271° |
| 2026-05-06 19:26 | 52.31257 | 12.04975 | 23792 ft | 427 kts | 271° |
| 2026-05-06 19:27 | 52.31476 | 12.00146 | 23793 ft | 427 kts | 271° |
| 2026-05-06 19:27 | 52.31694 | 11.95295 | 23795 ft | 427 kts | 271° |
| 2026-05-06 19:27 | 52.31907 | 11.90511 | 23790 ft | 427 kts | 271° |
| 2026-05-06 19:27 | 52.32120 | 11.85695 | 23797 ft | 428 kts | 271° |
| 2026-05-06 19:28 | 52.32331 | 11.80869 | 23794 ft | 428 kts | 272° |
| 2026-05-06 19:28 | 52.32540 | 11.76041 | 23800 ft | 428 kts | 271° |
| 2026-05-06 19:28 | 52.32747 | 11.71213 | 23796 ft | 429 kts | 272° |
| 2026-05-06 19:28 | 52.32953 | 11.66374 | 23803 ft | 429 kts | 272° |
| 2026-05-06 19:29 | 52.33156 | 11.61535 | 23797 ft | 429 kts | 272° |
| 2026-05-06 19:29 | 52.33358 | 11.56693 | 23796 ft | 429 kts | 272° |
| 2026-05-06 19:29 | 52.33559 | 11.51832 | 23796 ft | 429 kts | 272° |
| 2026-05-06 19:29 | 52.33757 | 11.46984 | 23802 ft | 429 kts | 272° |
| 2026-05-06 19:30 | 52.33950 | 11.42181 | 23803 ft | 430 kts | 272° |
| 2026-05-06 19:30 | 52.34144 | 11.37329 | 23801 ft | 430 kts | 272° |
| 2026-05-06 19:30 | 52.34335 | 11.32513 | 23807 ft | 430 kts | 271° |
| 2026-05-06 19:30 | 52.34522 | 11.27725 | 23805 ft | 430 kts | 271° |
| 2026-05-06 19:31 | 52.34708 | 11.22931 | 23808 ft | 431 kts | 271° |
| 2026-05-06 19:31 | 52.34891 | 11.18166 | 23804 ft | 431 kts | 271° |
| 2026-05-06 19:31 | 52.35257 | 11.08469 | 23805 ft | 431 kts | 271° |
| 2026-05-06 19:32 | 52.35437 | 11.03622 | 23808 ft | 432 kts | 271° |
| 2026-05-06 19:32 | 52.35617 | 10.98733 | 23806 ft | 432 kts | 271° |
| 2026-05-06 19:32 | 52.35794 | 10.93826 | 23805 ft | 432 kts | 271° |
| 2026-05-06 19:32 | 52.35967 | 10.88968 | 23805 ft | 432 kts | 271° |
| 2026-05-06 19:33 | 52.36059 | 10.84056 | 23796 ft | 431 kts | 265° |
| 2026-05-06 19:33 | 52.35488 | 10.79304 | 23804 ft | 430 kts | 254° |
| 2026-05-06 19:33 | 52.34682 | 10.74587 | 23798 ft | 430 kts | 253° |
| 2026-05-06 19:33 | 52.33877 | 10.69910 | 23796 ft | 430 kts | 253° |
| 2026-05-06 19:34 | 52.33085 | 10.65274 | 23793 ft | 430 kts | 254° |
| 2026-05-06 19:34 | 52.32288 | 10.60567 | 23797 ft | 431 kts | 254° |
| 2026-05-06 19:34 | 52.31491 | 10.55838 | 23799 ft | 440 kts | 254° |
| 2026-05-06 19:34 | 52.30673 | 10.50975 | 23793 ft | 451 kts | 254° |
| 2026-05-06 19:35 | 52.29842 | 10.46025 | 23794 ft | 454 kts | 254° |
| 2026-05-06 19:35 | 52.29009 | 10.41069 | 23801 ft | 455 kts | 254° |
| 2026-05-06 19:35 | 52.28172 | 10.36100 | 23799 ft | 456 kts | 254° |
| 2026-05-06 19:35 | 52.27335 | 10.31138 | 23796 ft | 456 kts | 254° |
| 2026-05-06 19:36 | 52.26495 | 10.26173 | 23792 ft | 456 kts | 254° |
| 2026-05-06 19:36 | 52.25706 | 10.21524 | 23795 ft | 457 kts | 254° |
| 2026-05-06 19:36 | 52.24856 | 10.16527 | 23794 ft | 458 kts | 254° |
| 2026-05-06 19:36 | 52.24008 | 10.11550 | 23788 ft | 458 kts | 254° |
| 2026-05-06 19:37 | 52.23158 | 10.06581 | 23786 ft | 458 kts | 254° |
| 2026-05-06 19:37 | 52.22298 | 10.01571 | 23784 ft | 459 kts | 254° |
| 2026-05-06 19:37 | 52.21450 | 9.96639 | 23782 ft | 459 kts | 254° |
| 2026-05-06 19:37 | 52.20591 | 9.91660 | 23787 ft | 460 kts | 254° |
| 2026-05-06 19:38 | 52.19719 | 9.86625 | 23787 ft | 460 kts | 254° |
| 2026-05-06 19:38 | 52.18859 | 9.81667 | 23789 ft | 460 kts | 254° |
| 2026-05-06 19:38 | 52.17994 | 9.76694 | 23788 ft | 461 kts | 254° |
| 2026-05-06 19:38 | 52.17126 | 9.71720 | 23788 ft | 461 kts | 254° |
| 2026-05-06 19:39 | 52.16255 | 9.66738 | 23789 ft | 461 kts | 254° |
| 2026-05-06 19:39 | 52.15380 | 9.61755 | 23789 ft | 462 kts | 254° |
| 2026-05-06 19:39 | 52.14498 | 9.56742 | 23788 ft | 462 kts | 254° |
| 2026-05-06 19:39 | 52.13618 | 9.51755 | 23791 ft | 462 kts | 254° |
| 2026-05-06 19:40 | 52.12736 | 9.46770 | 23792 ft | 463 kts | 254° |
| 2026-05-06 19:40 | 52.11844 | 9.41743 | 23795 ft | 463 kts | 254° |
| 2026-05-06 19:40 | 52.10953 | 9.36731 | 23796 ft | 463 kts | 254° |
| 2026-05-06 19:40 | 52.10060 | 9.31730 | 23799 ft | 464 kts | 253° |
| 2026-05-06 19:41 | 52.09162 | 9.26711 | 23801 ft | 464 kts | 253° |
| 2026-05-06 19:41 | 52.08263 | 9.21695 | 23801 ft | 464 kts | 253° |
| 2026-05-06 19:41 | 52.07360 | 9.16677 | 23805 ft | 465 kts | 253° |
| 2026-05-06 19:41 | 52.06455 | 9.11658 | 23807 ft | 465 kts | 253° |
| 2026-05-06 19:42 | 52.05547 | 9.06636 | 23806 ft | 466 kts | 253° |
| 2026-05-06 19:42 | 52.04631 | 9.01585 | 23809 ft | 467 kts | 253° |
| 2026-05-06 19:42 | 52.03723 | 8.96589 | 23809 ft | 467 kts | 253° |
| 2026-05-06 19:42 | 52.02805 | 8.91554 | 23811 ft | 467 kts | 253° |
| 2026-05-06 19:43 | 52.01882 | 8.86506 | 23812 ft | 467 kts | 253° |
| 2026-05-06 19:43 | 52.00959 | 8.81472 | 23815 ft | 467 kts | 253° |
| 2026-05-06 19:43 | 52.00031 | 8.76420 | 23818 ft | 467 kts | 253° |
| 2026-05-06 19:43 | 51.99111 | 8.71357 | 23818 ft | 467 kts | 253° |
| 2026-05-06 19:44 | 51.97985 | 8.66444 | 23798 ft | 467 kts | 242° |
| 2026-05-06 19:44 | 51.96121 | 8.62157 | 23822 ft | 468 kts | 232° |
| 2026-05-06 19:44 | 51.94062 | 8.58103 | 23819 ft | 467 kts | 231° |
| 2026-05-06 19:44 | 51.91985 | 8.54085 | 23819 ft | 468 kts | 231° |
| 2026-05-06 19:45 | 51.89915 | 8.50031 | 23820 ft | 467 kts | 231° |
| 2026-05-06 19:45 | 51.87875 | 8.45971 | 23820 ft | 467 kts | 232° |
| 2026-05-06 19:45 | 51.85850 | 8.41894 | 23823 ft | 467 kts | 232° |
| 2026-05-06 19:45 | 51.83832 | 8.37807 | 23825 ft | 467 kts | 232° |
| 2026-05-06 19:46 | 51.81839 | 8.33695 | 23826 ft | 466 kts | 234° |
| 2026-05-06 19:46 | 51.80040 | 8.29354 | 23830 ft | 465 kts | 237° |
| 2026-05-06 19:46 | 51.78350 | 8.24968 | 23832 ft | 466 kts | 238° |
| 2026-05-06 19:46 | 51.76670 | 8.20562 | 23832 ft | 466 kts | 238° |
| 2026-05-06 19:47 | 51.74985 | 8.16176 | 23833 ft | 466 kts | 238° |
| 2026-05-06 19:47 | 51.73254 | 8.11719 | 23831 ft | 465 kts | 238° |
| 2026-05-06 19:47 | 51.71518 | 8.07286 | 23774 ft | 465 kts | 238° |
| 2026-05-06 19:47 | 51.69792 | 8.02907 | 23515 ft | 463 kts | 238° |
| 2026-05-06 19:48 | 51.68073 | 7.98564 | 23256 ft | 462 kts | 237° |
| 2026-05-06 19:48 | 51.66341 | 7.94203 | 22994 ft | 460 kts | 237° |
| 2026-05-06 19:48 | 51.64626 | 7.89895 | 22736 ft | 459 kts | 237° |
| 2026-05-06 19:48 | 51.62916 | 7.85607 | 22371 ft | 456 kts | 237° |
| 2026-05-06 19:49 | 51.61219 | 7.81360 | 21702 ft | 452 kts | 238° |
| 2026-05-06 19:49 | 51.59526 | 7.77132 | 20923 ft | 446 kts | 238° |
| 2026-05-06 19:49 | 51.57851 | 7.72954 | 20133 ft | 442 kts | 238° |
| 2026-05-06 19:49 | 51.56186 | 7.68809 | 19301 ft | 437 kts | 238° |
| 2026-05-06 19:50 | 51.54442 | 7.64473 | 18415 ft | 432 kts | 238° |
| 2026-05-06 19:50 | 51.52794 | 7.60381 | 17580 ft | 428 kts | 238° |
| 2026-05-06 19:50 | 51.51174 | 7.56369 | 16723 ft | 424 kts | 238° |
| 2026-05-06 19:50 | 51.49580 | 7.52430 | 15868 ft | 420 kts | 238° |
| 2026-05-06 19:51 | 51.47992 | 7.48511 | 15027 ft | 416 kts | 238° |
| 2026-05-06 19:51 | 51.46429 | 7.44653 | 14327 ft | 409 kts | 238° |
| 2026-05-06 19:51 | 51.44927 | 7.40959 | 13934 ft | 394 kts | 239° |
| 2026-05-06 19:51 | 51.43434 | 7.37285 | 13842 ft | 389 kts | 239° |
| 2026-05-06 19:52 | 51.42006 | 7.33775 | 13542 ft | 378 kts | 238° |
| 2026-05-06 19:52 | 51.40643 | 7.30432 | 12920 ft | 371 kts | 238° |
| 2026-05-06 19:52 | 51.39258 | 7.27037 | 12378 ft | 362 kts | 238° |
| 2026-05-06 19:52 | 51.37912 | 7.23743 | 11780 ft | 356 kts | 238° |
| 2026-05-06 19:53 | 51.36592 | 7.20517 | 11324 ft | 346 kts | 238° |
| 2026-05-06 19:53 | 51.35301 | 7.17367 | 10909 ft | 336 kts | 239° |
| 2026-05-06 19:53 | 51.34069 | 7.14366 | 10369 ft | 323 kts | 239° |
| 2026-05-06 19:53 | 51.32858 | 7.11415 | 9818 ft | 310 kts | 239° |
| 2026-05-06 19:54 | 51.31655 | 7.08489 | 9306 ft | 297 kts | 239° |
| 2026-05-06 19:54 | 51.30544 | 7.05785 | 8869 ft | 285 kts | 239° |
| 2026-05-06 19:54 | 51.29473 | 7.03181 | 8470 ft | 282 kts | 239° |
| 2026-05-06 19:54 | 51.28406 | 7.00583 | 8068 ft | 291 kts | 239° |
| 2026-05-06 19:55 | 51.27248 | 6.97768 | 7647 ft | 293 kts | 239° |
| 2026-05-06 19:55 | 51.26083 | 6.94946 | 7215 ft | 293 kts | 239° |
| 2026-05-06 19:55 | 51.24879 | 6.92040 | 6881 ft | 291 kts | 239° |
| 2026-05-06 19:55 | 51.23778 | 6.89385 | 6667 ft | 291 kts | 239° |
| 2026-05-06 19:56 | 51.22668 | 6.86708 | 6413 ft | 290 kts | 239° |
| 2026-05-06 19:56 | 51.21564 | 6.84050 | 6148 ft | 289 kts | 239° |
| 2026-05-06 19:56 | 51.20475 | 6.81405 | 5845 ft | 288 kts | 239° |
| 2026-05-06 19:56 | 51.19390 | 6.78763 | 5522 ft | 283 kts | 239° |
| 2026-05-06 19:57 | 51.18325 | 6.76178 | 5165 ft | 279 kts | 239° |
| 2026-05-06 19:57 | 51.17262 | 6.73604 | 4803 ft | 269 kts | 239° |
| 2026-05-06 19:57 | 51.16249 | 6.71162 | 4442 ft | 259 kts | 239° |
| 2026-05-06 19:57 | 51.15250 | 6.68763 | 4082 ft | 250 kts | 239° |
| 2026-05-06 19:58 | 51.14295 | 6.66470 | 3962 ft | 242 kts | 239° |
| 2026-05-06 19:58 | 51.13324 | 6.64143 | 3963 ft | 243 kts | 239° |
| 2026-05-06 19:58 | 51.12369 | 6.61847 | 3963 ft | 242 kts | 239° |
| 2026-05-06 19:58 | 51.11385 | 6.59480 | 3965 ft | 243 kts | 239° |
| 2026-05-06 19:59 | 51.10436 | 6.57130 | 3964 ft | 243 kts | 245° |
| 2026-05-06 19:59 | 51.10028 | 6.54589 | 3960 ft | 236 kts | 277° |
| 2026-05-06 19:59 | 51.10518 | 6.52175 | 3963 ft | 226 kts | 309° |
| 2026-05-06 19:59 | 51.11646 | 6.50517 | 3952 ft | 221 kts | 336° |
| 2026-05-06 20:00 | 51.13124 | 6.50000 | 3451 ft | 226 kts | 6° |
| 2026-05-06 20:00 | 51.14635 | 6.50656 | 3051 ft | 225 kts | 21° |
| 2026-05-06 20:00 | 51.16023 | 6.51587 | 2960 ft | 210 kts | 29° |
| 2026-05-06 20:00 | 51.17150 | 6.52947 | 2959 ft | 197 kts | 43° |
| 2026-05-06 20:01 | 51.18054 | 6.54518 | 2963 ft | 194 kts | 47° |
| 2026-05-06 20:01 | 51.18910 | 6.56174 | 2965 ft | 193 kts | 50° |
| 2026-05-06 20:01 | 51.19781 | 6.57964 | 2884 ft | 193 kts | 51° |
| 2026-05-06 20:01 | 51.20590 | 6.59671 | 2623 ft | 193 kts | 51° |
| 2026-05-06 20:02 | 51.21381 | 6.61347 | 2432 ft | 185 kts | 51° |
| 2026-05-06 20:02 | 51.22134 | 6.62945 | 2162 ft | 175 kts | 50° |
| 2026-05-06 20:02 | 51.22848 | 6.64453 | 1920 ft | 163 kts | 50° |
| 2026-05-06 20:02 | 51.23518 | 6.65865 | 1675 ft | 153 kts | 50° |
| 2026-05-06 20:03 | 51.24124 | 6.67153 | 1480 ft | 139 kts | 50° |
| 2026-05-06 20:03 | 51.24723 | 6.68454 | 1252 ft | 129 kts | 51° |
| 2026-05-06 20:03 | 51.25242 | 6.69546 | 1053 ft | 121 kts | 50° |
| 2026-05-06 20:03 | 51.25728 | 6.70564 | 889 ft | 115 kts | 50° |
| 2026-05-06 20:04 | 51.26205 | 6.71548 | 764 ft | 116 kts | 49° |
| 2026-05-06 20:04 | 51.26678 | 6.72494 | 665 ft | 116 kts | 50° |
| 2026-05-06 20:04 | 51.27135 | 6.73454 | 522 ft | 115 kts | 51° |
| 2026-05-06 20:04 | 51.27582 | 6.74403 | 353 ft | 115 kts | 51° |
| 2026-05-06 20:05 | 51.28030 | 6.75351 | 238 ft | 117 kts | 51° |
| 2026-05-06 20:05 | 51.28477 | 6.76285 | 144 ft | 108 kts | 51° |
| 2026-05-06 20:05 | 51.28870 | 6.77098 | 143 ft | 83 kts | 53° |
| 2026-05-06 20:05 | 51.29036 | 6.77534 | 142 ft | 18 kts | 124° |
| 2026-05-06 20:06 | 51.28945 | 6.77642 | 142 ft | 18 kts | 159° |
| 2026-05-06 20:06 | 51.28851 | 6.77541 | 142 ft | 19 kts | 233° |
| 2026-05-06 20:06 | 51.28769 | 6.77362 | 142 ft | 22 kts | 233° |
| 2026-05-06 20:06 | 51.28626 | 6.77060 | 143 ft | 47 kts | 229° |
| 2026-05-06 20:07 | 51.28436 | 6.76663 | 143 ft | 46 kts | 234° |
| 2026-05-06 20:07 | 51.28252 | 6.76273 | 143 ft | 44 kts | 233° |
| 2026-05-06 20:07 | 51.28080 | 6.75912 | 143 ft | 42 kts | 235° |
| 2026-05-06 20:07 | 51.27993 | 6.75876 | 143 ft | 11 kts | 89° |
| 2026-05-06 20:08 | 51.27995 | 6.75917 | 143 ft | 3 kts | 91° |
| 2026-05-06 20:08 | 51.27995 | 6.75933 | 143 ft | 0 kts | 91° |